sensor_id;sensor_type;location;lat;lon;timestamp;P1;durP1;ratioP1;P2;durP2;ratioP2
67839;SDS011;54636;51.684;5.142;2022-10-31T00:01:38;15.32;;;9.60;;
67839;SDS011;54636;51.684;5.142;2022-10-31T00:04:03;17.25;;;9.93;;
67839;SDS011;54636;51.684;5.142;2022-10-31T00:06:29;15.82;;;10.25;;
67839;SDS011;54636;51.684;5.142;2022-10-31T00:08:56;21.92;;;10.48;;
67839;SDS011;54636;51.684;5.142;2022-10-31T00:11:23;16.27;;;9.15;;
67839;SDS011;54636;51.684;5.142;2022-10-31T00:13:49;16.23;;;10.05;;
67839;SDS011;54636;51.684;5.142;2022-10-31T00:16:15;16.67;;;9.38;;
67839;SDS011;54636;51.684;5.142;2022-10-31T00:18:41;15.02;;;10.13;;
67839;SDS011;54636;51.684;5.142;2022-10-31T00:21:07;14.13;;;9.80;;
67839;SDS011;54636;51.684;5.142;2022-10-31T00:23:32;14.93;;;9.05;;
67839;SDS011;54636;51.684;5.142;2022-10-31T00:26:01;16.35;;;9.10;;
67839;SDS011;54636;51.684;5.142;2022-10-31T00:28:28;11.90;;;8.88;;
67839;SDS011;54636;51.684;5.142;2022-10-31T00:30:58;18.42;;;9.98;;
67839;SDS011;54636;51.684;5.142;2022-10-31T00:33:27;12.18;;;9.23;;
67839;SDS011;54636;51.684;5.142;2022-10-31T00:35:52;18.02;;;9.73;;
67839;SDS011;54636;51.684;5.142;2022-10-31T00:38:18;22.38;;;9.95;;
67839;SDS011;54636;51.684;5.142;2022-10-31T00:40:43;15.38;;;9.85;;
67839;SDS011;54636;51.684;5.142;2022-10-31T00:43:09;17.17;;;9.68;;
67839;SDS011;54636;51.684;5.142;2022-10-31T00:45:34;20.45;;;9.38;;
67839;SDS011;54636;51.684;5.142;2022-10-31T00:47:59;14.77;;;9.75;;
67839;SDS011;54636;51.684;5.142;2022-10-31T00:50:25;12.65;;;9.13;;
67839;SDS011;54636;51.684;5.142;2022-10-31T00:52:50;18.70;;;11.05;;
67839;SDS011;54636;51.684;5.142;2022-10-31T00:55:15;14.23;;;9.57;;
67839;SDS011;54636;51.684;5.142;2022-10-31T00:57:41;11.50;;;9.20;;
67839;SDS011;54636;51.684;5.142;2022-10-31T01:00:06;14.27;;;8.98;;
67839;SDS011;54636;51.684;5.142;2022-10-31T01:02:32;13.20;;;9.80;;
67839;SDS011;54636;51.684;5.142;2022-10-31T01:04:57;15.40;;;10.15;;
67839;SDS011;54636;51.684;5.142;2022-10-31T01:07:23;21.33;;;10.35;;
67839;SDS011;54636;51.684;5.142;2022-10-31T01:09:48;19.88;;;10.93;;
67839;SDS011;54636;51.684;5.142;2022-10-31T01:12:14;19.05;;;10.60;;
67839;SDS011;54636;51.684;5.142;2022-10-31T01:14:42;18.40;;;10.35;;
67839;SDS011;54636;51.684;5.142;2022-10-31T01:17:09;12.63;;;10.32;;
67839;SDS011;54636;51.684;5.142;2022-10-31T01:19:35;17.00;;;10.73;;
67839;SDS011;54636;51.684;5.142;2022-10-31T01:22:01;18.27;;;10.68;;
67839;SDS011;54636;51.684;5.142;2022-10-31T01:24:26;14.07;;;10.68;;
67839;SDS011;54636;51.684;5.142;2022-10-31T01:26:51;11.00;;;9.65;;
67839;SDS011;54636;51.684;5.142;2022-10-31T01:29:17;17.08;;;10.75;;
67839;SDS011;54636;51.684;5.142;2022-10-31T01:31:42;16.52;;;10.35;;
67839;SDS011;54636;51.684;5.142;2022-10-31T01:34:08;13.55;;;10.38;;
67839;SDS011;54636;51.684;5.142;2022-10-31T01:36:38;15.15;;;10.93;;
67839;SDS011;54636;51.684;5.142;2022-10-31T01:39:22;17.63;;;10.43;;
67839;SDS011;54636;51.684;5.142;2022-10-31T01:41:48;16.35;;;10.45;;
67839;SDS011;54636;51.684;5.142;2022-10-31T01:49:30;15.38;;;10.90;;
67839;SDS011;54636;51.684;5.142;2022-10-31T01:52:02;21.75;;;11.43;;
67839;SDS011;54636;51.684;5.142;2022-10-31T01:54:32;16.90;;;11.73;;
67839;SDS011;54636;51.684;5.142;2022-10-31T01:57:03;15.60;;;10.65;;
67839;SDS011;54636;51.684;5.142;2022-10-31T01:59:32;21.80;;;11.73;;
67839;SDS011;54636;51.684;5.142;2022-10-31T02:02:02;18.70;;;11.00;;
67839;SDS011;54636;51.684;5.142;2022-10-31T02:04:27;15.38;;;10.82;;
67839;SDS011;54636;51.684;5.142;2022-10-31T02:06:55;20.42;;;11.32;;
67839;SDS011;54636;51.684;5.142;2022-10-31T02:09:27;20.75;;;11.55;;
67839;SDS011;54636;51.684;5.142;2022-10-31T02:11:56;16.00;;;11.57;;
67839;SDS011;54636;51.684;5.142;2022-10-31T02:14:24;20.58;;;11.98;;
67839;SDS011;54636;51.684;5.142;2022-10-31T02:16:53;20.98;;;12.18;;
67839;SDS011;54636;51.684;5.142;2022-10-31T02:22:15;15.40;;;11.30;;
67839;SDS011;54636;51.684;5.142;2022-10-31T02:31:16;13.05;;;11.30;;
67839;SDS011;54636;51.684;5.142;2022-10-31T02:36:26;14.00;;;10.25;;
67839;SDS011;54636;51.684;5.142;2022-10-31T02:44:51;14.77;;;11.07;;
67839;SDS011;54636;51.684;5.142;2022-10-31T02:47:22;13.55;;;10.48;;
67839;SDS011;54636;51.684;5.142;2022-10-31T02:52:26;18.15;;;11.15;;
67839;SDS011;54636;51.684;5.142;2022-10-31T02:54:53;16.75;;;10.75;;
67839;SDS011;54636;51.684;5.142;2022-10-31T02:57:20;12.02;;;10.73;;
67839;SDS011;54636;51.684;5.142;2022-10-31T02:59:56;14.25;;;10.35;;
67839;SDS011;54636;51.684;5.142;2022-10-31T03:05:11;12.32;;;10.27;;
67839;SDS011;54636;51.684;5.142;2022-10-31T03:12:56;14.70;;;9.77;;
67839;SDS011;54636;51.684;5.142;2022-10-31T03:15:34;15.30;;;10.75;;
67839;SDS011;54636;51.684;5.142;2022-10-31T03:18:06;18.05;;;11.38;;
67839;SDS011;54636;51.684;5.142;2022-10-31T03:20:38;15.43;;;11.20;;
67839;SDS011;54636;51.684;5.142;2022-10-31T03:23:07;14.40;;;10.43;;
67839;SDS011;54636;51.684;5.142;2022-10-31T03:25:38;18.73;;;11.13;;
67839;SDS011;54636;51.684;5.142;2022-10-31T03:28:05;15.55;;;11.20;;
67839;SDS011;54636;51.684;5.142;2022-10-31T03:30:32;16.50;;;10.82;;
67839;SDS011;54636;51.684;5.142;2022-10-31T03:33:01;13.48;;;11.02;;
67839;SDS011;54636;51.684;5.142;2022-10-31T03:35:29;13.73;;;10.13;;
67839;SDS011;54636;51.684;5.142;2022-10-31T03:37:57;11.27;;;10.13;;
67839;SDS011;54636;51.684;5.142;2022-10-31T03:40:25;14.68;;;10.25;;
67839;SDS011;54636;51.684;5.142;2022-10-31T03:43:00;10.88;;;9.75;;
67839;SDS011;54636;51.684;5.142;2022-10-31T03:45:30;13.10;;;10.20;;
67839;SDS011;54636;51.684;5.142;2022-10-31T03:47:57;13.20;;;9.80;;
67839;SDS011;54636;51.684;5.142;2022-10-31T03:50:24;15.27;;;10.73;;
67839;SDS011;54636;51.684;5.142;2022-10-31T03:52:58;13.55;;;9.68;;
67839;SDS011;54636;51.684;5.142;2022-10-31T03:55:29;14.20;;;9.27;;
67839;SDS011;54636;51.684;5.142;2022-10-31T03:58:03;10.60;;;9.05;;
67839;SDS011;54636;51.684;5.142;2022-10-31T04:00:33;13.45;;;9.80;;
67839;SDS011;54636;51.684;5.142;2022-10-31T04:03:16;9.80;;;8.82;;
67839;SDS011;54636;51.684;5.142;2022-10-31T04:05:45;10.63;;;8.98;;
67839;SDS011;54636;51.684;5.142;2022-10-31T04:08:14;9.93;;;8.60;;
67839;SDS011;54636;51.684;5.142;2022-10-31T04:10:42;10.13;;;8.93;;
67839;SDS011;54636;51.684;5.142;2022-10-31T04:13:13;13.93;;;9.50;;
67839;SDS011;54636;51.684;5.142;2022-10-31T04:15:41;12.80;;;9.20;;
67839;SDS011;54636;51.684;5.142;2022-10-31T04:18:08;10.15;;;9.15;;
67839;SDS011;54636;51.684;5.142;2022-10-31T04:20:38;12.30;;;10.18;;
67839;SDS011;54636;51.684;5.142;2022-10-31T04:23:11;13.02;;;9.80;;
67839;SDS011;54636;51.684;5.142;2022-10-31T04:25:43;13.35;;;9.70;;
67839;SDS011;54636;51.684;5.142;2022-10-31T04:28:08;14.48;;;11.23;;
67839;SDS011;54636;51.684;5.142;2022-10-31T04:30:33;15.65;;;11.02;;
67839;SDS011;54636;51.684;5.142;2022-10-31T04:32:59;12.73;;;10.48;;
67839;SDS011;54636;51.684;5.142;2022-10-31T04:35:24;19.33;;;9.70;;
67839;SDS011;54636;51.684;5.142;2022-10-31T04:37:49;10.65;;;9.55;;
67839;SDS011;54636;51.684;5.142;2022-10-31T04:40:15;17.38;;;9.38;;
67839;SDS011;54636;51.684;5.142;2022-10-31T04:42:40;11.95;;;9.57;;
67839;SDS011;54636;51.684;5.142;2022-10-31T04:45:06;11.18;;;10.02;;
67839;SDS011;54636;51.684;5.142;2022-10-31T04:47:32;12.93;;;9.80;;
67839;SDS011;54636;51.684;5.142;2022-10-31T04:49:58;10.52;;;9.48;;
67839;SDS011;54636;51.684;5.142;2022-10-31T04:52:23;10.02;;;9.05;;
67839;SDS011;54636;51.684;5.142;2022-10-31T04:54:49;12.15;;;8.70;;
67839;SDS011;54636;51.684;5.142;2022-10-31T04:57:14;14.05;;;9.00;;
67839;SDS011;54636;51.684;5.142;2022-10-31T04:59:39;11.82;;;7.97;;
67839;SDS011;54636;51.684;5.142;2022-10-31T05:02:05;8.88;;;7.32;;
67839;SDS011;54636;51.684;5.142;2022-10-31T05:04:30;7.68;;;6.80;;
67839;SDS011;54636;51.684;5.142;2022-10-31T05:06:55;7.28;;;6.03;;
67839;SDS011;54636;51.684;5.142;2022-10-31T05:09:21;6.75;;;6.13;;
67839;SDS011;54636;51.684;5.142;2022-10-31T05:11:46;5.47;;;5.07;;
67839;SDS011;54636;51.684;5.142;2022-10-31T05:14:11;8.95;;;7.35;;
67839;SDS011;54636;51.684;5.142;2022-10-31T05:16:37;9.88;;;7.95;;
67839;SDS011;54636;51.684;5.142;2022-10-31T05:19:02;15.82;;;8.55;;
67839;SDS011;54636;51.684;5.142;2022-10-31T05:21:27;11.02;;;8.80;;
67839;SDS011;54636;51.684;5.142;2022-10-31T05:23:53;8.82;;;7.50;;
67839;SDS011;54636;51.684;5.142;2022-10-31T05:26:18;10.07;;;9.07;;
67839;SDS011;54636;51.684;5.142;2022-10-31T05:28:47;11.30;;;8.82;;
67839;SDS011;54636;51.684;5.142;2022-10-31T05:31:12;11.43;;;10.15;;
67839;SDS011;54636;51.684;5.142;2022-10-31T05:33:37;10.25;;;7.97;;
67839;SDS011;54636;51.684;5.142;2022-10-31T05:36:03;9.27;;;8.25;;
67839;SDS011;54636;51.684;5.142;2022-10-31T05:38:28;9.10;;;8.18;;
67839;SDS011;54636;51.684;5.142;2022-10-31T05:40:54;9.15;;;8.43;;
67839;SDS011;54636;51.684;5.142;2022-10-31T05:43:25;11.98;;;9.35;;
67839;SDS011;54636;51.684;5.142;2022-10-31T05:45:53;15.15;;;9.75;;
67839;SDS011;54636;51.684;5.142;2022-10-31T05:48:19;15.97;;;11.00;;
67839;SDS011;54636;51.684;5.142;2022-10-31T05:50:44;21.50;;;12.93;;
67839;SDS011;54636;51.684;5.142;2022-10-31T05:53:14;25.75;;;16.85;;
67839;SDS011;54636;51.684;5.142;2022-10-31T05:55:40;27.45;;;16.45;;
67839;SDS011;54636;51.684;5.142;2022-10-31T05:58:07;29.75;;;16.73;;
67839;SDS011;54636;51.684;5.142;2022-10-31T06:00:32;30.13;;;17.67;;
67839;SDS011;54636;51.684;5.142;2022-10-31T06:03:03;26.38;;;17.83;;
67839;SDS011;54636;51.684;5.142;2022-10-31T06:05:30;34.03;;;18.73;;
67839;SDS011;54636;51.684;5.142;2022-10-31T06:07:56;35.15;;;19.73;;
67839;SDS011;54636;51.684;5.142;2022-10-31T06:10:22;37.33;;;21.20;;
67839;SDS011;54636;51.684;5.142;2022-10-31T06:12:48;29.02;;;19.73;;
67839;SDS011;54636;51.684;5.142;2022-10-31T06:15:13;35.33;;;19.05;;
67839;SDS011;54636;51.684;5.142;2022-10-31T06:17:38;29.98;;;17.98;;
67839;SDS011;54636;51.684;5.142;2022-10-31T06:20:05;31.73;;;17.92;;
67839;SDS011;54636;51.684;5.142;2022-10-31T06:22:31;32.22;;;18.33;;
67839;SDS011;54636;51.684;5.142;2022-10-31T06:24:56;26.55;;;17.55;;
67839;SDS011;54636;51.684;5.142;2022-10-31T06:27:22;25.13;;;16.27;;
67839;SDS011;54636;51.684;5.142;2022-10-31T06:29:54;32.40;;;18.17;;
67839;SDS011;54636;51.684;5.142;2022-10-31T06:32:19;23.45;;;17.25;;
67839;SDS011;54636;51.684;5.142;2022-10-31T06:34:45;26.40;;;17.92;;
67839;SDS011;54636;51.684;5.142;2022-10-31T06:37:13;24.65;;;16.85;;
67839;SDS011;54636;51.684;5.142;2022-10-31T06:39:39;30.50;;;16.88;;
67839;SDS011;54636;51.684;5.142;2022-10-31T06:42:04;40.78;;;19.33;;
67839;SDS011;54636;51.684;5.142;2022-10-31T06:44:30;37.88;;;19.58;;
67839;SDS011;54636;51.684;5.142;2022-10-31T06:46:56;51.50;;;21.23;;
67839;SDS011;54636;51.684;5.142;2022-10-31T06:49:21;64.68;;;22.52;;
67839;SDS011;54636;51.684;5.142;2022-10-31T06:51:49;166.20;;;37.35;;
67839;SDS011;54636;51.684;5.142;2022-10-31T06:54:15;97.97;;;26.33;;
67839;SDS011;54636;51.684;5.142;2022-10-31T06:56:41;114.72;;;32.92;;
67839;SDS011;54636;51.684;5.142;2022-10-31T06:59:06;166.60;;;37.55;;
67839;SDS011;54636;51.684;5.142;2022-10-31T07:01:32;62.63;;;23.75;;
67839;SDS011;54636;51.684;5.142;2022-10-31T07:03:58;86.50;;;26.48;;
67839;SDS011;54636;51.684;5.142;2022-10-31T07:06:23;80.25;;;26.52;;
67839;SDS011;54636;51.684;5.142;2022-10-31T07:08:48;64.65;;;23.75;;
67839;SDS011;54636;51.684;5.142;2022-10-31T07:11:14;161.68;;;38.28;;
67839;SDS011;54636;51.684;5.142;2022-10-31T07:13:39;57.10;;;23.25;;
67839;SDS011;54636;51.684;5.142;2022-10-31T07:16:05;38.20;;;22.08;;
67839;SDS011;54636;51.684;5.142;2022-10-31T07:18:31;37.80;;;20.45;;
67839;SDS011;54636;51.684;5.142;2022-10-31T07:20:57;36.20;;;20.48;;
67839;SDS011;54636;51.684;5.142;2022-10-31T07:23:23;36.05;;;21.52;;
67839;SDS011;54636;51.684;5.142;2022-10-31T07:25:48;33.00;;;21.20;;
67839;SDS011;54636;51.684;5.142;2022-10-31T07:28:19;52.20;;;22.05;;
67839;SDS011;54636;51.684;5.142;2022-10-31T07:30:48;38.95;;;21.67;;
67839;SDS011;54636;51.684;5.142;2022-10-31T07:33:15;44.75;;;21.90;;
67839;SDS011;54636;51.684;5.142;2022-10-31T07:35:40;37.88;;;22.10;;
67839;SDS011;54636;51.684;5.142;2022-10-31T07:38:06;35.58;;;21.80;;
67839;SDS011;54636;51.684;5.142;2022-10-31T07:40:33;35.70;;;20.73;;
67839;SDS011;54636;51.684;5.142;2022-10-31T07:42:58;38.03;;;21.52;;
67839;SDS011;54636;51.684;5.142;2022-10-31T07:45:24;42.00;;;22.92;;
67839;SDS011;54636;51.684;5.142;2022-10-31T07:47:50;48.35;;;23.38;;
67839;SDS011;54636;51.684;5.142;2022-10-31T07:50:30;44.05;;;22.35;;
67839;SDS011;54636;51.684;5.142;2022-10-31T07:55:34;43.30;;;24.98;;
67839;SDS011;54636;51.684;5.142;2022-10-31T07:58:01;44.80;;;25.10;;
67839;SDS011;54636;51.684;5.142;2022-10-31T08:00:28;46.17;;;26.08;;
67839;SDS011;54636;51.684;5.142;2022-10-31T08:05:23;48.40;;;26.63;;
67839;SDS011;54636;51.684;5.142;2022-10-31T08:07:48;48.63;;;28.13;;
67839;SDS011;54636;51.684;5.142;2022-10-31T08:10:14;42.63;;;25.30;;
67839;SDS011;54636;51.684;5.142;2022-10-31T08:12:39;42.85;;;25.80;;
67839;SDS011;54636;51.684;5.142;2022-10-31T08:15:05;48.78;;;25.73;;
67839;SDS011;54636;51.684;5.142;2022-10-31T08:17:30;47.33;;;26.60;;
67839;SDS011;54636;51.684;5.142;2022-10-31T08:20:00;52.13;;;26.92;;
67839;SDS011;54636;51.684;5.142;2022-10-31T08:22:25;42.10;;;25.10;;
67839;SDS011;54636;51.684;5.142;2022-10-31T08:24:54;40.70;;;25.50;;
67839;SDS011;54636;51.684;5.142;2022-10-31T08:27:20;41.22;;;25.75;;
67839;SDS011;54636;51.684;5.142;2022-10-31T08:29:45;47.10;;;25.30;;
67839;SDS011;54636;51.684;5.142;2022-10-31T08:32:10;30.05;;;22.25;;
67839;SDS011;54636;51.684;5.142;2022-10-31T08:34:36;34.55;;;23.67;;
67839;SDS011;54636;51.684;5.142;2022-10-31T08:37:01;42.10;;;23.33;;
67839;SDS011;54636;51.684;5.142;2022-10-31T08:39:26;38.35;;;22.58;;
67839;SDS011;54636;51.684;5.142;2022-10-31T08:41:52;32.33;;;22.13;;
67839;SDS011;54636;51.684;5.142;2022-10-31T08:44:17;31.92;;;21.52;;
67839;SDS011;54636;51.684;5.142;2022-10-31T08:46:42;37.50;;;22.13;;
67839;SDS011;54636;51.684;5.142;2022-10-31T08:49:08;33.60;;;22.90;;
67839;SDS011;54636;51.684;5.142;2022-10-31T08:51:33;35.75;;;22.20;;
67839;SDS011;54636;51.684;5.142;2022-10-31T08:53:59;38.00;;;23.60;;
67839;SDS011;54636;51.684;5.142;2022-10-31T08:56:24;35.30;;;23.60;;
67839;SDS011;54636;51.684;5.142;2022-10-31T08:58:49;34.28;;;23.75;;
67839;SDS011;54636;51.684;5.142;2022-10-31T09:01:16;37.70;;;23.48;;
67839;SDS011;54636;51.684;5.142;2022-10-31T09:03:41;31.33;;;21.95;;
67839;SDS011;54636;51.684;5.142;2022-10-31T09:06:07;34.45;;;22.50;;
67839;SDS011;54636;51.684;5.142;2022-10-31T09:08:34;33.88;;;21.73;;
67839;SDS011;54636;51.684;5.142;2022-10-31T09:11:00;38.58;;;24.65;;
67839;SDS011;54636;51.684;5.142;2022-10-31T09:13:29;37.85;;;24.02;;
67839;SDS011;54636;51.684;5.142;2022-10-31T09:15:55;34.20;;;24.23;;
67839;SDS011;54636;51.684;5.142;2022-10-31T09:18:22;29.15;;;22.17;;
67839;SDS011;54636;51.684;5.142;2022-10-31T09:20:49;34.55;;;21.98;;
67839;SDS011;54636;51.684;5.142;2022-10-31T09:23:19;33.78;;;22.65;;
67839;SDS011;54636;51.684;5.142;2022-10-31T09:25:46;38.83;;;23.02;;
67839;SDS011;54636;51.684;5.142;2022-10-31T09:28:14;39.88;;;23.58;;
67839;SDS011;54636;51.684;5.142;2022-10-31T09:30:40;38.38;;;21.05;;
67839;SDS011;54636;51.684;5.142;2022-10-31T09:33:07;33.58;;;22.52;;
67839;SDS011;54636;51.684;5.142;2022-10-31T09:35:37;32.92;;;22.75;;
67839;SDS011;54636;51.684;5.142;2022-10-31T09:38:04;37.22;;;23.23;;
67839;SDS011;54636;51.684;5.142;2022-10-31T09:46:21;26.80;;;18.45;;
67839;SDS011;54636;51.684;5.142;2022-10-31T09:51:43;31.42;;;20.50;;
67839;SDS011;54636;51.684;5.142;2022-10-31T09:54:15;35.78;;;20.15;;
67839;SDS011;54636;51.684;5.142;2022-10-31T09:56:45;24.38;;;18.75;;
67839;SDS011;54636;51.684;5.142;2022-10-31T10:02:14;30.50;;;19.77;;
67839;SDS011;54636;51.684;5.142;2022-10-31T10:04:53;30.10;;;18.88;;
67839;SDS011;54636;51.684;5.142;2022-10-31T10:10:01;33.35;;;19.52;;
67839;SDS011;54636;51.684;5.142;2022-10-31T10:12:44;27.92;;;19.35;;
67839;SDS011;54636;51.684;5.142;2022-10-31T10:23:35;35.65;;;18.00;;
67839;SDS011;54636;51.684;5.142;2022-10-31T10:26:06;25.85;;;17.48;;
67839;SDS011;54636;51.684;5.142;2022-10-31T10:28:40;32.17;;;19.48;;
67839;SDS011;54636;51.684;5.142;2022-10-31T10:31:10;32.45;;;19.75;;
67839;SDS011;54636;51.684;5.142;2022-10-31T10:36:14;29.70;;;20.30;;
67839;SDS011;54636;51.684;5.142;2022-10-31T10:38:55;33.00;;;19.58;;
67839;SDS011;54636;51.684;5.142;2022-10-31T10:41:29;33.00;;;19.63;;
67839;SDS011;54636;51.684;5.142;2022-10-31T10:44:00;33.47;;;20.63;;
67839;SDS011;54636;51.684;5.142;2022-10-31T10:52:31;27.75;;;19.15;;
67839;SDS011;54636;51.684;5.142;2022-10-31T10:57:58;25.33;;;19.08;;
67839;SDS011;54636;51.684;5.142;2022-10-31T11:00:29;34.95;;;21.35;;
67839;SDS011;54636;51.684;5.142;2022-10-31T11:02:57;40.28;;;22.27;;
67839;SDS011;54636;51.684;5.142;2022-10-31T11:07:50;36.90;;;21.58;;
67839;SDS011;54636;51.684;5.142;2022-10-31T11:10:15;40.05;;;22.83;;
67839;SDS011;54636;51.684;5.142;2022-10-31T11:13:00;39.35;;;22.58;;
67839;SDS011;54636;51.684;5.142;2022-10-31T11:16:06;35.75;;;21.45;;
67839;SDS011;54636;51.684;5.142;2022-10-31T11:18:41;31.10;;;21.63;;
67839;SDS011;54636;51.684;5.142;2022-10-31T11:21:19;35.50;;;23.00;;
67839;SDS011;54636;51.684;5.142;2022-10-31T11:23:45;36.17;;;23.58;;
67839;SDS011;54636;51.684;5.142;2022-10-31T11:26:18;41.47;;;22.08;;
67839;SDS011;54636;51.684;5.142;2022-10-31T11:28:55;39.13;;;23.77;;
67839;SDS011;54636;51.684;5.142;2022-10-31T11:31:22;36.97;;;23.60;;
67839;SDS011;54636;51.684;5.142;2022-10-31T11:33:49;41.72;;;24.15;;
67839;SDS011;54636;51.684;5.142;2022-10-31T11:36:22;39.38;;;24.65;;
67839;SDS011;54636;51.684;5.142;2022-10-31T11:38:50;31.37;;;23.33;;
67839;SDS011;54636;51.684;5.142;2022-10-31T11:41:17;33.10;;;23.05;;
67839;SDS011;54636;51.684;5.142;2022-10-31T11:43:53;41.90;;;23.98;;
67839;SDS011;54636;51.684;5.142;2022-10-31T11:46:29;32.92;;;22.95;;
67839;SDS011;54636;51.684;5.142;2022-10-31T11:48:59;34.28;;;22.75;;
67839;SDS011;54636;51.684;5.142;2022-10-31T11:51:27;36.45;;;24.63;;
67839;SDS011;54636;51.684;5.142;2022-10-31T11:53:57;34.83;;;23.25;;
67839;SDS011;54636;51.684;5.142;2022-10-31T11:56:23;25.80;;;18.15;;
67839;SDS011;54636;51.684;5.142;2022-10-31T11:59:00;40.80;;;24.67;;
67839;SDS011;54636;51.684;5.142;2022-10-31T12:01:29;42.80;;;25.02;;
67839;SDS011;54636;51.684;5.142;2022-10-31T12:04:09;39.67;;;24.40;;
67839;SDS011;54636;51.684;5.142;2022-10-31T12:06:41;38.33;;;24.67;;
67839;SDS011;54636;51.684;5.142;2022-10-31T12:09:15;36.78;;;23.60;;
67839;SDS011;54636;51.684;5.142;2022-10-31T12:17:32;40.38;;;25.75;;
67839;SDS011;54636;51.684;5.142;2022-10-31T12:31:10;46.58;;;26.63;;
67839;SDS011;54636;51.684;5.142;2022-10-31T12:34:12;42.47;;;26.13;;
67839;SDS011;54636;51.684;5.142;2022-10-31T12:41:55;39.40;;;24.40;;
67839;SDS011;54636;51.684;5.142;2022-10-31T12:44:46;39.08;;;25.65;;
67839;SDS011;54636;51.684;5.142;2022-10-31T12:55:48;42.63;;;27.08;;
67839;SDS011;54636;51.684;5.142;2022-10-31T12:58:16;48.40;;;25.70;;
67839;SDS011;54636;51.684;5.142;2022-10-31T13:00:47;39.67;;;25.60;;
67839;SDS011;54636;51.684;5.142;2022-10-31T13:06:16;38.83;;;26.25;;
67839;SDS011;54636;51.684;5.142;2022-10-31T13:08:54;39.97;;;26.77;;
67839;SDS011;54636;51.684;5.142;2022-10-31T13:11:26;37.67;;;23.10;;
67839;SDS011;54636;51.684;5.142;2022-10-31T13:14:06;41.13;;;25.20;;
67839;SDS011;54636;51.684;5.142;2022-10-31T13:16:43;44.17;;;24.45;;
67839;SDS011;54636;51.684;5.142;2022-10-31T13:19:16;38.97;;;23.77;;
67839;SDS011;54636;51.684;5.142;2022-10-31T13:22:03;34.45;;;24.50;;
67839;SDS011;54636;51.684;5.142;2022-10-31T13:27:13;35.85;;;24.05;;
67839;SDS011;54636;51.684;5.142;2022-10-31T13:29:48;23.33;;;17.35;;
67839;SDS011;54636;51.684;5.142;2022-10-31T13:32:26;40.25;;;22.67;;
67839;SDS011;54636;51.684;5.142;2022-10-31T13:35:02;38.00;;;24.80;;
67839;SDS011;54636;51.684;5.142;2022-10-31T13:37:37;43.10;;;23.92;;
67839;SDS011;54636;51.684;5.142;2022-10-31T13:40:21;30.13;;;22.25;;
67839;SDS011;54636;51.684;5.142;2022-10-31T13:43:00;36.88;;;24.52;;
67839;SDS011;54636;51.684;5.142;2022-10-31T13:45:34;36.47;;;23.15;;
67839;SDS011;54636;51.684;5.142;2022-10-31T13:50:40;43.42;;;24.00;;
67839;SDS011;54636;51.684;5.142;2022-10-31T13:53:12;35.20;;;23.30;;
67839;SDS011;54636;51.684;5.142;2022-10-31T13:55:44;35.38;;;22.33;;
67839;SDS011;54636;51.684;5.142;2022-10-31T14:00:57;34.85;;;22.25;;
67839;SDS011;54636;51.684;5.142;2022-10-31T14:03:44;36.13;;;23.33;;
67839;SDS011;54636;51.684;5.142;2022-10-31T14:06:11;39.03;;;23.70;;
67839;SDS011;54636;51.684;5.142;2022-10-31T14:08:39;36.10;;;23.27;;
67839;SDS011;54636;51.684;5.142;2022-10-31T14:11:17;36.13;;;22.13;;
67839;SDS011;54636;51.684;5.142;2022-10-31T14:13:55;39.08;;;22.25;;
67839;SDS011;54636;51.684;5.142;2022-10-31T14:16:24;40.53;;;22.40;;
67839;SDS011;54636;51.684;5.142;2022-10-31T14:19:02;39.88;;;20.75;;
67839;SDS011;54636;51.684;5.142;2022-10-31T14:21:38;36.70;;;21.33;;
67839;SDS011;54636;51.684;5.142;2022-10-31T14:24:30;36.60;;;22.25;;
67839;SDS011;54636;51.684;5.142;2022-10-31T14:29:26;31.75;;;20.10;;
67839;SDS011;54636;51.684;5.142;2022-10-31T14:34:43;30.67;;;18.08;;
67839;SDS011;54636;51.684;5.142;2022-10-31T14:42:39;26.10;;;16.65;;
67839;SDS011;54636;51.684;5.142;2022-10-31T14:45:31;30.70;;;17.10;;
67839;SDS011;54636;51.684;5.142;2022-10-31T14:51:08;25.90;;;15.50;;
67839;SDS011;54636;51.684;5.142;2022-10-31T14:53:48;25.02;;;13.57;;
67839;SDS011;54636;51.684;5.142;2022-10-31T14:56:25;19.15;;;12.05;;
67839;SDS011;54636;51.684;5.142;2022-10-31T14:58:53;24.58;;;13.70;;
67839;SDS011;54636;51.684;5.142;2022-10-31T15:01:32;26.00;;;14.10;;
67839;SDS011;54636;51.684;5.142;2022-10-31T15:04:05;24.88;;;14.20;;
67839;SDS011;54636;51.684;5.142;2022-10-31T15:06:40;18.75;;;11.63;;
67839;SDS011;54636;51.684;5.142;2022-10-31T15:09:22;27.85;;;14.00;;
67839;SDS011;54636;51.684;5.142;2022-10-31T15:11:48;19.63;;;12.65;;
67839;SDS011;54636;51.684;5.142;2022-10-31T15:14:24;18.20;;;12.00;;
67839;SDS011;54636;51.684;5.142;2022-10-31T15:17:01;24.50;;;12.25;;
67839;SDS011;54636;51.684;5.142;2022-10-31T15:19:28;20.73;;;11.55;;
67839;SDS011;54636;51.684;5.142;2022-10-31T15:21:56;23.67;;;12.05;;
67839;SDS011;54636;51.684;5.142;2022-10-31T15:24:24;22.67;;;12.00;;
67839;SDS011;54636;51.684;5.142;2022-10-31T15:26:57;16.90;;;10.25;;
67839;SDS011;54636;51.684;5.142;2022-10-31T15:29:24;21.98;;;12.40;;
67839;SDS011;54636;51.684;5.142;2022-10-31T15:31:52;22.92;;;12.45;;
67839;SDS011;54636;51.684;5.142;2022-10-31T15:34:22;28.77;;;13.55;;
67839;SDS011;54636;51.684;5.142;2022-10-31T15:36:55;21.58;;;12.43;;
67839;SDS011;54636;51.684;5.142;2022-10-31T15:39:20;24.92;;;13.65;;
67839;SDS011;54636;51.684;5.142;2022-10-31T15:41:53;21.15;;;12.80;;
67839;SDS011;54636;51.684;5.142;2022-10-31T15:44:22;24.23;;;13.68;;
67839;SDS011;54636;51.684;5.142;2022-10-31T15:46:52;23.35;;;13.30;;
67839;SDS011;54636;51.684;5.142;2022-10-31T15:51:54;24.35;;;12.90;;
67839;SDS011;54636;51.684;5.142;2022-10-31T15:54:20;27.77;;;12.95;;
67839;SDS011;54636;51.684;5.142;2022-10-31T15:56:46;30.23;;;13.80;;
67839;SDS011;54636;51.684;5.142;2022-10-31T15:59:16;23.05;;;13.65;;
67839;SDS011;54636;51.684;5.142;2022-10-31T16:01:54;24.00;;;13.98;;
67839;SDS011;54636;51.684;5.142;2022-10-31T16:04:23;21.15;;;13.15;;
67839;SDS011;54636;51.684;5.142;2022-10-31T16:07:02;24.25;;;14.57;;
67839;SDS011;54636;51.684;5.142;2022-10-31T16:09:50;31.42;;;13.57;;
67839;SDS011;54636;51.684;5.142;2022-10-31T16:12:31;32.22;;;14.07;;
67839;SDS011;54636;51.684;5.142;2022-10-31T16:15:00;29.25;;;13.85;;
67839;SDS011;54636;51.684;5.142;2022-10-31T16:17:29;24.27;;;13.88;;
67839;SDS011;54636;51.684;5.142;2022-10-31T16:24:57;31.13;;;14.52;;
67839;SDS011;54636;51.684;5.142;2022-10-31T16:27:27;23.52;;;13.90;;
67839;SDS011;54636;51.684;5.142;2022-10-31T16:29:58;19.48;;;14.10;;
67839;SDS011;54636;51.684;5.142;2022-10-31T16:32:33;28.90;;;14.07;;
67839;SDS011;54636;51.684;5.142;2022-10-31T16:35:18;23.05;;;14.45;;
67839;SDS011;54636;51.684;5.142;2022-10-31T16:37:50;31.83;;;13.93;;
67839;SDS011;54636;51.684;5.142;2022-10-31T16:40:15;18.63;;;13.52;;
67839;SDS011;54636;51.684;5.142;2022-10-31T16:42:41;35.13;;;15.07;;
67839;SDS011;54636;51.684;5.142;2022-10-31T16:45:08;29.70;;;14.43;;
67839;SDS011;54636;51.684;5.142;2022-10-31T16:47:40;23.95;;;14.07;;
67839;SDS011;54636;51.684;5.142;2022-10-31T16:50:11;27.85;;;14.52;;
67839;SDS011;54636;51.684;5.142;2022-10-31T16:52:38;25.88;;;13.55;;
67839;SDS011;54636;51.684;5.142;2022-10-31T16:55:04;26.23;;;14.02;;